sensor_id;sensor_type;location;lat;lon;timestamp;P1;durP1;ratioP1;P2;durP2;ratioP2
52948;SDS011;38812;50.942;3.644;2022-12-18T00:00:53;65.82;;;28.35;;
52948;SDS011;38812;50.942;3.644;2022-12-18T00:03:18;63.25;;;26.13;;
52948;SDS011;38812;50.942;3.644;2022-12-18T00:05:47;67.20;;;26.05;;
52948;SDS011;38812;50.942;3.644;2022-12-18T00:08:13;60.28;;;26.08;;
52948;SDS011;38812;50.942;3.644;2022-12-18T00:10:39;58.80;;;24.40;;
52948;SDS011;38812;50.942;3.644;2022-12-18T00:13:04;62.70;;;26.30;;
52948;SDS011;38812;50.942;3.644;2022-12-18T00:15:29;57.70;;;25.13;;
52948;SDS011;38812;50.942;3.644;2022-12-18T00:17:55;56.85;;;23.83;;
52948;SDS011;38812;50.942;3.644;2022-12-18T00:20:20;54.88;;;24.65;;
52948;SDS011;38812;50.942;3.644;2022-12-18T00:22:50;54.22;;;24.40;;
52948;SDS011;38812;50.942;3.644;2022-12-18T00:25:18;56.67;;;23.10;;
52948;SDS011;38812;50.942;3.644;2022-12-18T00:27:44;59.20;;;24.63;;
52948;SDS011;38812;50.942;3.644;2022-12-18T00:30:09;45.80;;;21.80;;
52948;SDS011;38812;50.942;3.644;2022-12-18T00:32:35;60.22;;;23.83;;
52948;SDS011;38812;50.942;3.644;2022-12-18T00:35:01;55.38;;;24.42;;
52948;SDS011;38812;50.942;3.644;2022-12-18T00:37:26;52.08;;;21.60;;
52948;SDS011;38812;50.942;3.644;2022-12-18T00:39:51;49.92;;;21.80;;
52948;SDS011;38812;50.942;3.644;2022-12-18T00:42:17;46.22;;;21.67;;
52948;SDS011;38812;50.942;3.644;2022-12-18T00:45:01;49.35;;;19.80;;
52948;SDS011;38812;50.942;3.644;2022-12-18T00:47:26;49.00;;;20.50;;
52948;SDS011;38812;50.942;3.644;2022-12-18T00:49:51;48.58;;;20.77;;
52948;SDS011;38812;50.942;3.644;2022-12-18T00:52:17;53.85;;;22.00;;
52948;SDS011;38812;50.942;3.644;2022-12-18T00:54:42;39.55;;;19.33;;
52948;SDS011;38812;50.942;3.644;2022-12-18T00:57:07;53.33;;;22.85;;
52948;SDS011;38812;50.942;3.644;2022-12-18T00:59:33;46.85;;;20.25;;
52948;SDS011;38812;50.942;3.644;2022-12-18T01:01:58;54.05;;;22.38;;
52948;SDS011;38812;50.942;3.644;2022-12-18T01:04:23;49.97;;;23.10;;
52948;SDS011;38812;50.942;3.644;2022-12-18T01:06:49;50.50;;;21.20;;
52948;SDS011;38812;50.942;3.644;2022-12-18T01:09:14;51.65;;;20.17;;
52948;SDS011;38812;50.942;3.644;2022-12-18T01:11:40;55.83;;;21.25;;
52948;SDS011;38812;50.942;3.644;2022-12-18T01:14:05;54.75;;;22.50;;
52948;SDS011;38812;50.942;3.644;2022-12-18T01:16:31;48.55;;;20.27;;
52948;SDS011;38812;50.942;3.644;2022-12-18T01:18:56;51.15;;;22.75;;
52948;SDS011;38812;50.942;3.644;2022-12-18T01:21:22;56.65;;;22.65;;
52948;SDS011;38812;50.942;3.644;2022-12-18T01:23:50;47.55;;;21.17;;
52948;SDS011;38812;50.942;3.644;2022-12-18T01:26:17;52.30;;;21.85;;
52948;SDS011;38812;50.942;3.644;2022-12-18T01:28:42;49.00;;;21.83;;
52948;SDS011;38812;50.942;3.644;2022-12-18T01:31:12;47.22;;;20.85;;
52948;SDS011;38812;50.942;3.644;2022-12-18T01:33:44;48.67;;;21.25;;
52948;SDS011;38812;50.942;3.644;2022-12-18T01:36:14;50.90;;;20.27;;
52948;SDS011;38812;50.942;3.644;2022-12-18T01:38:50;46.85;;;21.25;;
52948;SDS011;38812;50.942;3.644;2022-12-18T01:41:17;49.83;;;21.63;;
52948;SDS011;38812;50.942;3.644;2022-12-18T01:46:22;51.40;;;20.85;;
52948;SDS011;38812;50.942;3.644;2022-12-18T01:48:50;50.83;;;21.30;;
52948;SDS011;38812;50.942;3.644;2022-12-18T01:51:20;49.17;;;20.45;;
52948;SDS011;38812;50.942;3.644;2022-12-18T01:53:46;42.22;;;20.50;;
52948;SDS011;38812;50.942;3.644;2022-12-18T01:56:16;50.55;;;22.20;;
52948;SDS011;38812;50.942;3.644;2022-12-18T02:01:41;50.00;;;20.27;;
52948;SDS011;38812;50.942;3.644;2022-12-18T02:04:18;50.08;;;20.88;;
52948;SDS011;38812;50.942;3.644;2022-12-18T02:06:45;54.13;;;20.33;;
52948;SDS011;38812;50.942;3.644;2022-12-18T02:09:33;49.75;;;22.15;;
52948;SDS011;38812;50.942;3.644;2022-12-18T02:12:11;48.72;;;21.42;;
52948;SDS011;38812;50.942;3.644;2022-12-18T02:14:49;51.85;;;22.30;;
52948;SDS011;38812;50.942;3.644;2022-12-18T02:20:24;43.20;;;19.55;;
52948;SDS011;38812;50.942;3.644;2022-12-18T02:28:08;46.10;;;20.23;;
52948;SDS011;38812;50.942;3.644;2022-12-18T02:30:37;50.15;;;20.65;;
52948;SDS011;38812;50.942;3.644;2022-12-18T02:33:06;46.55;;;21.35;;
52948;SDS011;38812;50.942;3.644;2022-12-18T02:35:33;46.80;;;20.20;;
52948;SDS011;38812;50.942;3.644;2022-12-18T02:38:00;49.83;;;21.05;;
52948;SDS011;38812;50.942;3.644;2022-12-18T02:40:28;52.63;;;22.63;;
52948;SDS011;38812;50.942;3.644;2022-12-18T02:42:54;46.47;;;19.85;;
52948;SDS011;38812;50.942;3.644;2022-12-18T02:45:20;46.35;;;20.33;;
52948;SDS011;38812;50.942;3.644;2022-12-18T02:47:46;47.95;;;19.80;;
52948;SDS011;38812;50.942;3.644;2022-12-18T02:50:30;54.28;;;20.98;;
52948;SDS011;38812;50.942;3.644;2022-12-18T03:03:39;38.65;;;14.40;;
52948;SDS011;38812;50.942;3.644;2022-12-18T03:06:17;46.47;;;19.38;;
52948;SDS011;38812;50.942;3.644;2022-12-18T03:08:58;49.95;;;19.08;;
52948;SDS011;38812;50.942;3.644;2022-12-18T03:11:28;46.45;;;18.92;;
52948;SDS011;38812;50.942;3.644;2022-12-18T03:14:15;49.63;;;19.75;;
52948;SDS011;38812;50.942;3.644;2022-12-18T03:16:43;58.05;;;21.73;;
52948;SDS011;38812;50.942;3.644;2022-12-18T03:19:16;46.60;;;20.85;;
52948;SDS011;38812;50.942;3.644;2022-12-18T03:21:47;40.65;;;19.35;;
52948;SDS011;38812;50.942;3.644;2022-12-18T03:24:17;44.45;;;20.67;;
52948;SDS011;38812;50.942;3.644;2022-12-18T03:26:46;43.50;;;18.73;;
52948;SDS011;38812;50.942;3.644;2022-12-18T03:29:14;50.17;;;20.05;;
52948;SDS011;38812;50.942;3.644;2022-12-18T03:31:45;57.53;;;20.63;;
52948;SDS011;38812;50.942;3.644;2022-12-18T03:34:15;39.88;;;19.35;;
52948;SDS011;38812;50.942;3.644;2022-12-18T03:36:45;48.40;;;20.63;;
52948;SDS011;38812;50.942;3.644;2022-12-18T03:39:10;50.47;;;20.60;;
52948;SDS011;38812;50.942;3.644;2022-12-18T03:47:14;49.70;;;20.48;;
52948;SDS011;38812;50.942;3.644;2022-12-18T03:52:53;45.30;;;17.58;;
52948;SDS011;38812;50.942;3.644;2022-12-18T03:55:34;37.33;;;13.57;;
52948;SDS011;38812;50.942;3.644;2022-12-18T03:58:01;42.75;;;18.00;;
52948;SDS011;38812;50.942;3.644;2022-12-18T04:00:29;46.10;;;18.42;;
52948;SDS011;38812;50.942;3.644;2022-12-18T04:02:56;47.72;;;19.52;;
52948;SDS011;38812;50.942;3.644;2022-12-18T04:05:25;49.75;;;18.70;;
52948;SDS011;38812;50.942;3.644;2022-12-18T04:07:53;46.58;;;17.80;;
52948;SDS011;38812;50.942;3.644;2022-12-18T04:10:20;52.08;;;21.38;;
52948;SDS011;38812;50.942;3.644;2022-12-18T04:12:45;42.53;;;17.75;;
52948;SDS011;38812;50.942;3.644;2022-12-18T04:15:11;46.90;;;18.55;;
52948;SDS011;38812;50.942;3.644;2022-12-18T04:17:38;53.03;;;19.02;;
52948;SDS011;38812;50.942;3.644;2022-12-18T04:20:04;47.08;;;18.42;;
52948;SDS011;38812;50.942;3.644;2022-12-18T04:22:30;43.67;;;17.15;;
52948;SDS011;38812;50.942;3.644;2022-12-18T04:24:55;38.63;;;17.45;;
52948;SDS011;38812;50.942;3.644;2022-12-18T04:27:21;45.35;;;19.08;;
52948;SDS011;38812;50.942;3.644;2022-12-18T04:29:46;51.53;;;18.85;;
52948;SDS011;38812;50.942;3.644;2022-12-18T04:32:12;48.55;;;18.00;;
52948;SDS011;38812;50.942;3.644;2022-12-18T04:34:37;41.20;;;16.73;;
52948;SDS011;38812;50.942;3.644;2022-12-18T04:37:02;42.42;;;17.80;;
52948;SDS011;38812;50.942;3.644;2022-12-18T04:39:28;44.78;;;19.13;;
52948;SDS011;38812;50.942;3.644;2022-12-18T04:41:53;49.88;;;17.33;;
52948;SDS011;38812;50.942;3.644;2022-12-18T04:44:19;52.13;;;17.92;;
52948;SDS011;38812;50.942;3.644;2022-12-18T04:46:44;43.47;;;17.02;;
52948;SDS011;38812;50.942;3.644;2022-12-18T04:49:09;46.13;;;18.42;;
52948;SDS011;38812;50.942;3.644;2022-12-18T04:51:38;47.78;;;17.88;;
52948;SDS011;38812;50.942;3.644;2022-12-18T04:54:04;41.92;;;17.33;;
52948;SDS011;38812;50.942;3.644;2022-12-18T04:56:30;48.53;;;19.27;;
52948;SDS011;38812;50.942;3.644;2022-12-18T04:58:56;44.05;;;19.00;;
52948;SDS011;38812;50.942;3.644;2022-12-18T05:01:21;42.92;;;17.80;;
52948;SDS011;38812;50.942;3.644;2022-12-18T05:03:47;48.28;;;18.38;;
52948;SDS011;38812;50.942;3.644;2022-12-18T05:06:12;48.83;;;19.52;;
52948;SDS011;38812;50.942;3.644;2022-12-18T05:08:37;41.63;;;16.77;;
52948;SDS011;38812;50.942;3.644;2022-12-18T05:11:10;44.63;;;19.50;;
52948;SDS011;38812;50.942;3.644;2022-12-18T05:13:37;48.40;;;17.65;;
52948;SDS011;38812;50.942;3.644;2022-12-18T05:16:04;41.88;;;18.88;;
52948;SDS011;38812;50.942;3.644;2022-12-18T05:18:29;42.58;;;18.00;;
52948;SDS011;38812;50.942;3.644;2022-12-18T05:20:55;43.03;;;18.23;;
52948;SDS011;38812;50.942;3.644;2022-12-18T05:23:21;46.03;;;18.88;;
52948;SDS011;38812;50.942;3.644;2022-12-18T05:25:50;44.63;;;17.83;;
52948;SDS011;38812;50.942;3.644;2022-12-18T05:28:20;40.38;;;17.10;;
52948;SDS011;38812;50.942;3.644;2022-12-18T05:30:52;42.53;;;18.58;;
52948;SDS011;38812;50.942;3.644;2022-12-18T05:33:20;43.17;;;17.90;;
52948;SDS011;38812;50.942;3.644;2022-12-18T05:35:51;42.80;;;18.25;;
52948;SDS011;38812;50.942;3.644;2022-12-18T05:38:17;52.72;;;19.48;;
52948;SDS011;38812;50.942;3.644;2022-12-18T05:40:43;45.80;;;17.88;;
52948;SDS011;38812;50.942;3.644;2022-12-18T05:43:09;41.72;;;17.08;;
52948;SDS011;38812;50.942;3.644;2022-12-18T05:45:39;45.05;;;18.23;;
52948;SDS011;38812;50.942;3.644;2022-12-18T05:48:05;44.67;;;18.75;;
52948;SDS011;38812;50.942;3.644;2022-12-18T05:50:33;38.40;;;16.60;;
52948;SDS011;38812;50.942;3.644;2022-12-18T05:53:00;46.38;;;19.42;;
52948;SDS011;38812;50.942;3.644;2022-12-18T05:55:25;44.63;;;18.05;;
52948;SDS011;38812;50.942;3.644;2022-12-18T05:57:51;39.78;;;17.40;;
52948;SDS011;38812;50.942;3.644;2022-12-18T06:00:16;37.47;;;18.20;;
52948;SDS011;38812;50.942;3.644;2022-12-18T06:02:42;48.58;;;19.75;;
52948;SDS011;38812;50.942;3.644;2022-12-18T06:05:07;43.45;;;17.83;;
52948;SDS011;38812;50.942;3.644;2022-12-18T06:07:32;41.25;;;18.52;;
52948;SDS011;38812;50.942;3.644;2022-12-18T06:09:58;40.80;;;17.00;;
52948;SDS011;38812;50.942;3.644;2022-12-18T06:12:23;38.22;;;17.25;;
52948;SDS011;38812;50.942;3.644;2022-12-18T06:14:48;50.38;;;18.83;;
52948;SDS011;38812;50.942;3.644;2022-12-18T06:17:14;51.47;;;19.33;;
52948;SDS011;38812;50.942;3.644;2022-12-18T06:19:39;42.70;;;17.33;;
52948;SDS011;38812;50.942;3.644;2022-12-18T06:22:04;39.33;;;16.73;;
52948;SDS011;38812;50.942;3.644;2022-12-18T06:24:30;44.92;;;18.50;;
52948;SDS011;38812;50.942;3.644;2022-12-18T06:26:55;47.83;;;18.25;;
52948;SDS011;38812;50.942;3.644;2022-12-18T06:29:21;48.60;;;18.15;;
52948;SDS011;38812;50.942;3.644;2022-12-18T06:31:46;50.35;;;19.75;;
52948;SDS011;38812;50.942;3.644;2022-12-18T06:34:11;46.25;;;19.35;;
52948;SDS011;38812;50.942;3.644;2022-12-18T06:36:37;38.00;;;17.23;;
52948;SDS011;38812;50.942;3.644;2022-12-18T06:39:02;46.20;;;18.10;;
52948;SDS011;38812;50.942;3.644;2022-12-18T06:41:28;45.88;;;18.35;;
52948;SDS011;38812;50.942;3.644;2022-12-18T06:43:53;39.40;;;16.40;;
52948;SDS011;38812;50.942;3.644;2022-12-18T06:46:19;42.78;;;16.92;;
52948;SDS011;38812;50.942;3.644;2022-12-18T06:48:46;48.20;;;17.23;;
52948;SDS011;38812;50.942;3.644;2022-12-18T06:51:15;40.63;;;17.50;;
52948;SDS011;38812;50.942;3.644;2022-12-18T06:53:44;36.13;;;15.85;;
52948;SDS011;38812;50.942;3.644;2022-12-18T06:56:10;41.70;;;18.15;;
52948;SDS011;38812;50.942;3.644;2022-12-18T06:58:35;49.78;;;18.48;;
52948;SDS011;38812;50.942;3.644;2022-12-18T07:01:02;48.28;;;18.23;;
52948;SDS011;38812;50.942;3.644;2022-12-18T07:03:28;45.35;;;18.20;;
52948;SDS011;38812;50.942;3.644;2022-12-18T07:05:54;41.38;;;16.98;;
52948;SDS011;38812;50.942;3.644;2022-12-18T07:08:20;48.60;;;17.52;;
52948;SDS011;38812;50.942;3.644;2022-12-18T07:10:46;45.75;;;18.08;;
52948;SDS011;38812;50.942;3.644;2022-12-18T07:13:11;41.13;;;16.42;;
52948;SDS011;38812;50.942;3.644;2022-12-18T07:15:36;52.50;;;19.45;;
52948;SDS011;38812;50.942;3.644;2022-12-18T07:18:02;44.00;;;17.63;;
52948;SDS011;38812;50.942;3.644;2022-12-18T07:20:28;45.22;;;19.42;;
52948;SDS011;38812;50.942;3.644;2022-12-18T07:22:53;39.40;;;16.30;;
52948;SDS011;38812;50.942;3.644;2022-12-18T07:25:19;48.65;;;19.23;;
52948;SDS011;38812;50.942;3.644;2022-12-18T07:27:44;41.83;;;18.27;;
52948;SDS011;38812;50.942;3.644;2022-12-18T07:30:10;37.92;;;16.70;;
52948;SDS011;38812;50.942;3.644;2022-12-18T07:32:35;47.65;;;19.20;;
52948;SDS011;38812;50.942;3.644;2022-12-18T07:35:01;45.20;;;19.02;;
52948;SDS011;38812;50.942;3.644;2022-12-18T07:37:26;42.50;;;17.88;;
52948;SDS011;38812;50.942;3.644;2022-12-18T07:39:52;45.28;;;18.83;;
52948;SDS011;38812;50.942;3.644;2022-12-18T07:42:17;43.42;;;19.55;;
52948;SDS011;38812;50.942;3.644;2022-12-18T07:44:58;49.92;;;19.17;;
52948;SDS011;38812;50.942;3.644;2022-12-18T07:47:25;43.70;;;17.92;;
52948;SDS011;38812;50.942;3.644;2022-12-18T07:49:50;37.47;;;16.50;;
52948;SDS011;38812;50.942;3.644;2022-12-18T07:52:16;49.20;;;17.88;;
52948;SDS011;38812;50.942;3.644;2022-12-18T07:54:41;40.10;;;16.77;;
52948;SDS011;38812;50.942;3.644;2022-12-18T07:57:07;43.83;;;17.08;;
52948;SDS011;38812;50.942;3.644;2022-12-18T07:59:33;39.08;;;17.70;;
52948;SDS011;38812;50.942;3.644;2022-12-18T08:01:59;43.45;;;18.00;;
52948;SDS011;38812;50.942;3.644;2022-12-18T08:04:24;39.10;;;15.85;;
52948;SDS011;38812;50.942;3.644;2022-12-18T08:06:50;33.35;;;15.45;;
52948;SDS011;38812;50.942;3.644;2022-12-18T08:09:16;35.30;;;15.18;;
52948;SDS011;38812;50.942;3.644;2022-12-18T08:11:41;34.70;;;16.08;;
52948;SDS011;38812;50.942;3.644;2022-12-18T08:14:07;33.95;;;15.35;;
52948;SDS011;38812;50.942;3.644;2022-12-18T08:16:32;38.05;;;15.45;;
52948;SDS011;38812;50.942;3.644;2022-12-18T08:18:58;40.30;;;15.93;;
52948;SDS011;38812;50.942;3.644;2022-12-18T08:21:24;40.70;;;17.00;;
52948;SDS011;38812;50.942;3.644;2022-12-18T08:23:53;39.72;;;17.60;;
52948;SDS011;38812;50.942;3.644;2022-12-18T08:26:21;43.05;;;17.85;;
52948;SDS011;38812;50.942;3.644;2022-12-18T08:28:46;50.92;;;21.75;;
52948;SDS011;38812;50.942;3.644;2022-12-18T08:31:12;46.40;;;20.42;;
52948;SDS011;38812;50.942;3.644;2022-12-18T08:33:38;46.33;;;19.38;;
52948;SDS011;38812;50.942;3.644;2022-12-18T08:36:05;42.88;;;19.58;;
52948;SDS011;38812;50.942;3.644;2022-12-18T08:38:31;37.53;;;17.13;;
52948;SDS011;38812;50.942;3.644;2022-12-18T08:40:58;37.50;;;17.50;;
52948;SDS011;38812;50.942;3.644;2022-12-18T08:43:25;34.38;;;14.75;;
52948;SDS011;38812;50.942;3.644;2022-12-18T08:46:08;37.95;;;16.95;;
52948;SDS011;38812;50.942;3.644;2022-12-18T08:48:34;27.63;;;12.27;;
52948;SDS011;38812;50.942;3.644;2022-12-18T08:50:59;23.35;;;10.82;;
52948;SDS011;38812;50.942;3.644;2022-12-18T08:53:25;23.02;;;11.15;;
52948;SDS011;38812;50.942;3.644;2022-12-18T08:55:51;22.67;;;11.63;;
52948;SDS011;38812;50.942;3.644;2022-12-18T08:58:17;20.17;;;9.95;;
52948;SDS011;38812;50.942;3.644;2022-12-18T09:00:42;19.80;;;9.20;;
52948;SDS011;38812;50.942;3.644;2022-12-18T09:03:12;20.88;;;8.35;;
52948;SDS011;38812;50.942;3.644;2022-12-18T09:05:41;21.05;;;9.70;;
52948;SDS011;38812;50.942;3.644;2022-12-18T09:08:07;16.67;;;8.27;;
52948;SDS011;38812;50.942;3.644;2022-12-18T09:10:32;20.13;;;9.65;;
52948;SDS011;38812;50.942;3.644;2022-12-18T09:12:58;19.38;;;8.60;;
52948;SDS011;38812;50.942;3.644;2022-12-18T09:15:23;15.80;;;7.95;;
52948;SDS011;38812;50.942;3.644;2022-12-18T09:17:49;17.77;;;8.43;;
52948;SDS011;38812;50.942;3.644;2022-12-18T09:20:15;20.83;;;9.55;;
52948;SDS011;38812;50.942;3.644;2022-12-18T09:22:41;17.40;;;8.57;;
52948;SDS011;38812;50.942;3.644;2022-12-18T09:25:06;18.17;;;8.48;;
52948;SDS011;38812;50.942;3.644;2022-12-18T09:27:35;16.98;;;9.85;;
52948;SDS011;38812;50.942;3.644;2022-12-18T09:30:00;21.10;;;8.70;;
52948;SDS011;38812;50.942;3.644;2022-12-18T09:32:26;11.82;;;6.90;;
52948;SDS011;38812;50.942;3.644;2022-12-18T09:34:51;16.33;;;8.52;;
52948;SDS011;38812;50.942;3.644;2022-12-18T09:37:17;16.15;;;8.75;;
52948;SDS011;38812;50.942;3.644;2022-12-18T09:39:42;16.20;;;8.98;;
52948;SDS011;38812;50.942;3.644;2022-12-18T09:42:08;17.70;;;8.82;;
52948;SDS011;38812;50.942;3.644;2022-12-18T09:44:45;20.17;;;9.15;;
52948;SDS011;38812;50.942;3.644;2022-12-18T09:47:17;20.27;;;9.15;;
52948;SDS011;38812;50.942;3.644;2022-12-18T09:50:00;20.25;;;8.68;;
52948;SDS011;38812;50.942;3.644;2022-12-18T09:55:11;14.23;;;8.05;;
52948;SDS011;38812;50.942;3.644;2022-12-18T10:00:55;16.50;;;8.25;;
52948;SDS011;38812;50.942;3.644;2022-12-18T10:03:20;20.50;;;8.02;;
52948;SDS011;38812;50.942;3.644;2022-12-18T10:11:13;14.95;;;6.63;;
52948;SDS011;38812;50.942;3.644;2022-12-18T10:13:55;17.33;;;7.38;;
52948;SDS011;38812;50.942;3.644;2022-12-18T10:16:36;13.40;;;7.13;;
52948;SDS011;38812;50.942;3.644;2022-12-18T10:27:31;15.95;;;7.85;;
52948;SDS011;38812;50.942;3.644;2022-12-18T10:29:56;22.38;;;10.52;;
52948;SDS011;38812;50.942;3.644;2022-12-18T10:32:26;15.93;;;7.15;;
52948;SDS011;38812;50.942;3.644;2022-12-18T10:34:55;14.95;;;8.00;;
52948;SDS011;38812;50.942;3.644;2022-12-18T10:37:23;20.73;;;8.88;;
52948;SDS011;38812;50.942;3.644;2022-12-18T10:42:32;17.67;;;8.35;;
52948;SDS011;38812;50.942;3.644;2022-12-18T10:45:18;24.63;;;10.38;;
52948;SDS011;38812;50.942;3.644;2022-12-18T10:47:46;19.65;;;9.95;;
52948;SDS011;38812;50.942;3.644;2022-12-18T10:50:23;18.95;;;9.27;;
52948;SDS011;38812;50.942;3.644;2022-12-18T10:52:58;21.75;;;10.18;;
52948;SDS011;38812;50.942;3.644;2022-12-18T10:55:27;21.38;;;9.95;;
52948;SDS011;38812;50.942;3.644;2022-12-18T10:58:12;18.00;;;10.25;;
52948;SDS011;38812;50.942;3.644;2022-12-18T11:03:38;21.70;;;11.30;;
52948;SDS011;38812;50.942;3.644;2022-12-18T11:06:12;24.38;;;12.15;;
52948;SDS011;38812;50.942;3.644;2022-12-18T11:08:39;25.48;;;12.77;;
52948;SDS011;38812;50.942;3.644;2022-12-18T11:11:07;21.05;;;10.18;;
52948;SDS011;38812;50.942;3.644;2022-12-18T11:13:48;25.23;;;12.68;;
52948;SDS011;38812;50.942;3.644;2022-12-18T11:16:30;25.27;;;10.45;;
52948;SDS011;38812;50.942;3.644;2022-12-18T11:19:22;21.83;;;10.85;;
52948;SDS011;38812;50.942;3.644;2022-12-18T11:21:50;23.23;;;12.35;;
52948;SDS011;38812;50.942;3.644;2022-12-18T11:24:27;19.45;;;8.73;;
52948;SDS011;38812;50.942;3.644;2022-12-18T11:26:54;28.50;;;13.18;;
52948;SDS011;38812;50.942;3.644;2022-12-18T11:29:29;27.25;;;13.15;;
52948;SDS011;38812;50.942;3.644;2022-12-18T11:35:03;26.23;;;13.38;;
52948;SDS011;38812;50.942;3.644;2022-12-18T11:37:29;28.77;;;14.23;;
52948;SDS011;38812;50.942;3.644;2022-12-18T11:39:57;32.78;;;14.07;;
52948;SDS011;38812;50.942;3.644;2022-12-18T11:42:45;30.83;;;14.52;;
52948;SDS011;38812;50.942;3.644;2022-12-18T11:45:25;26.10;;;13.88;;
52948;SDS011;38812;50.942;3.644;2022-12-18T11:48:01;26.95;;;13.35;;
52948;SDS011;38812;50.942;3.644;2022-12-18T11:50:50;26.23;;;13.88;;
52948;SDS011;38812;50.942;3.644;2022-12-18T11:53:18;24.75;;;12.90;;
52948;SDS011;38812;50.942;3.644;2022-12-18T12:01:18;28.52;;;14.75;;
52948;SDS011;38812;50.942;3.644;2022-12-18T12:06:36;34.90;;;16.23;;
52948;SDS011;38812;50.942;3.644;2022-12-18T12:15:17;33.15;;;15.65;;
52948;SDS011;38812;50.942;3.644;2022-12-18T12:23:05;31.92;;;15.32;;
52948;SDS011;38812;50.942;3.644;2022-12-18T12:25:41;31.98;;;16.77;;
52948;SDS011;38812;50.942;3.644;2022-12-18T12:28:47;33.08;;;16.70;;
52948;SDS011;38812;50.942;3.644;2022-12-18T12:31:12;29.80;;;15.60;;
52948;SDS011;38812;50.942;3.644;2022-12-18T12:39:21;31.88;;;16.92;;
52948;SDS011;38812;50.942;3.644;2022-12-18T12:41:51;32.58;;;16.75;;
52948;SDS011;38812;50.942;3.644;2022-12-18T12:44:38;30.58;;;15.70;;
52948;SDS011;38812;50.942;3.644;2022-12-18T12:49:43;36.38;;;17.85;;
52948;SDS011;38812;50.942;3.644;2022-12-18T12:52:14;34.60;;;17.38;;
52948;SDS011;38812;50.942;3.644;2022-12-18T12:54:42;36.08;;;17.23;;
52948;SDS011;38812;50.942;3.644;2022-12-18T12:57:11;33.45;;;17.27;;
52948;SDS011;38812;50.942;3.644;2022-12-18T13:05:25;38.22;;;19.77;;
52948;SDS011;38812;50.942;3.644;2022-12-18T13:08:25;35.78;;;17.63;;
52948;SDS011;38812;50.942;3.644;2022-12-18T13:10:53;40.47;;;19.63;;
52948;SDS011;38812;50.942;3.644;2022-12-18T13:13:49;35.95;;;18.17;;
52948;SDS011;38812;50.942;3.644;2022-12-18T13:16:20;34.58;;;17.33;;
52948;SDS011;38812;50.942;3.644;2022-12-18T13:19:18;38.58;;;18.90;;
52948;SDS011;38812;50.942;3.644;2022-12-18T13:21:51;39.33;;;18.58;;
52948;SDS011;38812;50.942;3.644;2022-12-18T13:24:26;34.90;;;18.98;;
52948;SDS011;38812;50.942;3.644;2022-12-18T13:26:55;33.42;;;17.25;;
52948;SDS011;38812;50.942;3.644;2022-12-18T13:32:22;38.88;;;17.10;;
52948;SDS011;38812;50.942;3.644;2022-12-18T13:34:59;39.55;;;19.00;;
52948;SDS011;38812;50.942;3.644;2022-12-18T13:37:52;36.25;;;16.10;;
52948;SDS011;38812;50.942;3.644;2022-12-18T13:43:13;37.25;;;17.67;;
52948;SDS011;38812;50.942;3.644;2022-12-18T13:45:49;30.87;;;16.27;;
52948;SDS011;38812;50.942;3.644;2022-12-18T13:48:18;35.38;;;18.25;;
52948;SDS011;38812;50.942;3.644;2022-12-18T13:50:49;40.33;;;19.42;;
52948;SDS011;38812;50.942;3.644;2022-12-18T13:53:25;36.50;;;19.10;;
52948;SDS011;38812;50.942;3.644;2022-12-18T13:55:53;37.50;;;19.65;;
52948;SDS011;38812;50.942;3.644;2022-12-18T13:58:19;37.97;;;18.98;;
52948;SDS011;38812;50.942;3.644;2022-12-18T14:00:44;43.17;;;19.70;;
52948;SDS011;38812;50.942;3.644;2022-12-18T14:03:23;41.85;;;19.58;;
52948;SDS011;38812;50.942;3.644;2022-12-18T14:05:54;40.22;;;19.92;;
52948;SDS011;38812;50.942;3.644;2022-12-18T14:08:23;37.40;;;19.55;;
52948;SDS011;38812;50.942;3.644;2022-12-18T14:10:52;29.27;;;13.63;;
52948;SDS011;38812;50.942;3.644;2022-12-18T14:15:49;37.92;;;18.33;;
52948;SDS011;38812;50.942;3.644;2022-12-18T14:18:23;39.67;;;20.23;;
52948;SDS011;38812;50.942;3.644;2022-12-18T14:20:55;40.65;;;19.85;;
52948;SDS011;38812;50.942;3.644;2022-12-18T14:23:39;26.42;;;12.48;;
52948;SDS011;38812;50.942;3.644;2022-12-18T14:28:52;38.75;;;19.50;;
52948;SDS011;38812;50.942;3.644;2022-12-18T14:31:23;38.60;;;19.75;;
52948;SDS011;38812;50.942;3.644;2022-12-18T14:33:56;40.03;;;20.02;;
52948;SDS011;38812;50.942;3.644;2022-12-18T14:36:25;44.70;;;19.88;;
52948;SDS011;38812;50.942;3.644;2022-12-18T14:38:54;34.28;;;18.10;;
52948;SDS011;38812;50.942;3.644;2022-12-18T14:41:21;39.70;;;18.98;;
52948;SDS011;38812;50.942;3.644;2022-12-18T14:43:48;40.55;;;17.52;;
52948;SDS011;38812;50.942;3.644;2022-12-18T14:46:33;36.45;;;18.65;;
52948;SDS011;38812;50.942;3.644;2022-12-18T14:49:23;42.00;;;21.17;;
52948;SDS011;38812;50.942;3.644;2022-12-18T14:51:47;38.17;;;18.17;;
52948;SDS011;38812;50.942;3.644;2022-12-18T14:54:16;40.30;;;19.25;;
52948;SDS011;38812;50.942;3.644;2022-12-18T14:56:44;41.33;;;20.48;;
52948;SDS011;38812;50.942;3.644;2022-12-18T15:01:45;41.17;;;20.38;;
52948;SDS011;38812;50.942;3.644;2022-12-18T15:07:01;39.67;;;20.15;;
52948;SDS011;38812;50.942;3.644;2022-12-18T15:09:33;41.72;;;20.60;;
52948;SDS011;38812;50.942;3.644;2022-12-18T15:11:59;46.55;;;20.35;;
52948;SDS011;38812;50.942;3.644;2022-12-18T15:14:39;45.70;;;21.05;;
52948;SDS011;38812;50.942;3.644;2022-12-18T15:17:26;42.38;;;20.30;;
52948;SDS011;38812;50.942;3.644;2022-12-18T15:19:52;40.85;;;19.80;;
52948;SDS011;38812;50.942;3.644;2022-12-18T15:22:26;48.45;;;20.95;;
52948;SDS011;38812;50.942;3.644;2022-12-18T15:24:55;39.25;;;19.73;;
52948;SDS011;38812;50.942;3.644;2022-12-18T15:27:30;43.70;;;20.15;;
52948;SDS011;38812;50.942;3.644;2022-12-18T15:30:00;41.88;;;20.30;;
52948;SDS011;38812;50.942;3.644;2022-12-18T15:32:37;44.42;;;22.98;;
52948;SDS011;38812;50.942;3.644;2022-12-18T15:37:36;40.90;;;21.52;;
52948;SDS011;38812;50.942;3.644;2022-12-18T15:40:02;36.58;;;18.45;;
52948;SDS011;38812;50.942;3.644;2022-12-18T15:42:29;41.90;;;20.55;;
52948;SDS011;38812;50.942;3.644;2022-12-18T15:45:13;37.95;;;19.38;;
52948;SDS011;38812;50.942;3.644;2022-12-18T15:47:39;41.50;;;20.30;;
52948;SDS011;38812;50.942;3.644;2022-12-18T15:50:04;38.17;;;19.73;;
52948;SDS011;38812;50.942;3.644;2022-12-18T15:52:31;40.78;;;20.55;;
52948;SDS011;38812;50.942;3.644;2022-12-18T15:55:05;41.08;;;20.75;;
52948;SDS011;38812;50.942;3.644;2022-12-18T15:57:54;39.17;;;18.58;;
52948;SDS011;38812;50.942;3.644;2022-12-18T16:00:19;44.08;;;19.58;;
52948;SDS011;38812;50.942;3.644;2022-12-18T16:02:44;41.53;;;18.85;;
52948;SDS011;38812;50.942;3.644;2022-12-18T16:05:13;53.75;;;24.00;;
52948;SDS011;38812;50.942;3.644;2022-12-18T16:07:41;43.17;;;18.92;;
52948;SDS011;38812;50.942;3.644;2022-12-18T16:10:07;37.40;;;17.02;;
52948;SDS011;38812;50.942;3.644;2022-12-18T16:12:33;38.15;;;18.35;;
52948;SDS011;38812;50.942;3.644;2022-12-18T16:14:58;38.90;;;18.92;;
52948;SDS011;38812;50.942;3.644;2022-12-18T16:17:23;43.10;;;20.02;;
52948;SDS011;38812;50.942;3.644;2022-12-18T16:19:49;43.53;;;18.60;;
52948;SDS011;38812;50.942;3.644;2022-12-18T16:22:18;38.92;;;18.52;;
52948;SDS011;38812;50.942;3.644;2022-12-18T16:24:46;40.60;;;18.08;;
52948;SDS011;38812;50.942;3.644;2022-12-18T16:27:12;34.55;;;17.40;;
52948;SDS011;38812;50.942;3.644;2022-12-18T16:29:37;38.15;;;17.85;;